• Join FlightAware (Why Join?)
  • Login
  • US Flag 
01:33AM EDT


 

Airport Tracker/Info


-or-


 

Live Flight TrackerFlight Track Log ✈ FLG3493 ✈ 11-Sep-2013 ✈ KLGA - KSRQ

Flight Track Log - Related Links

Times and Time Zones

All times are in EDT time to prevent confusion due to time zone crossing. See the FLG3493 flight status page for this flight to view local times or setup timezone preferences in your user account.

Time Position Orientation Groundspeed Altitude Reporting Facility
EDT Latitude Longitude Course Direction KTS MPH feet Rate Location/Type
11:22AM 40.7500 -73.8500 114° Southeast 153 176 1,400  Level New York TRACON
11:23AM 40.7333 -73.8000 114° Southeast 214 246 3,300 1,920 Climbing New York TRACON
11:24AM 40.8000 -73.7500 30° Northeast 257 296 5,300 1,800 Climbing New York TRACON
11:25AM 40.8500 -73.7833 333° Northwest 288 331 7,000 1,380 Climbing New York TRACON
11:26AM 40.8500 -73.8833 270° West 275 316 8,100 1,800 Climbing New York TRACON
11:27AM 40.8333 -73.9833 258° West 283 326 10,500 2,100 Climbing New York TRACON
11:28AM 40.8000 -74.1000 249° West 334 384 12,100 1,980 Climbing New York TRACON
11:30AM 40.7153 -74.3603 247° West 354 407 17,000 1,920 Climbing New York Center
11:31AM 40.6664 -74.4644 238° Southwest 373 429 18,400 1,740 Climbing New York Center
11:32AM 40.6061 -74.5897 238° Southwest 378 435 20,500 1,680 Climbing New York Center
11:33AM 40.5481 -74.7094 237° Southwest 383 441 21,900 1,500 Climbing New York Center
11:34AM 40.4919 -74.8289 238° Southwest 388 447 23,500 1,440 Climbing New York Center
11:35AM 40.4311 -74.9536 237° Southwest 400 460 24,800 1,320 Climbing New York Center
11:36AM 40.3542 -75.0689 229° Southwest 410 472 26,200 1,380 Climbing New York Center
11:37AM 40.2750 -75.1808 227° Southwest 421 484 27,600 1,200 Climbing New York Center
11:38AM 40.2022 -75.2850 228° Southwest 433 498 28,600 1,260 Climbing New York Center
11:39AM 40.1186 -75.3989 226° Southwest 433 498 30,200 1,440 Climbing New York Center
11:40AM 40.0369 -75.5128 227° Southwest 433 498 31,500 1,440 Climbing New York Center
11:41AM 39.9553 -75.6264 227° Southwest 438 504 33,100 1,380 Climbing New York Center
11:42AM 39.8775 -75.7428 229° Southwest 433 498 34,300 1,200 Climbing New York Center
11:43AM 39.7992 -75.8669 231° Southwest 438 504 35,500 1,080 Climbing New York Center
11:45AM 39.6542 -76.0956 231° Southwest 422 486 37,600 840 Climbing Washington Center
11:46AM 39.5786 -76.2108 230° Southwest 428 493 38,000 180 Climbing Washington Center
11:47AM 39.5031 -76.3339 232° Southwest 428 493 38,000  Level Washington Center
11:48AM 39.4250 -76.4567 231° Southwest 434 499 38,000  Level Washington Center
11:49AM 39.3428 -76.5764 228° Southwest 439 505 38,000  Level Washington Center
11:50AM 39.2625 -76.7014 230° Southwest 451 519 38,000  Level Washington Center
11:51AM 39.1842 -76.8233 230° Southwest 451 519 38,000  Level Washington Center
11:52AM 39.1100 -76.9397 231° Southwest 451 519 38,000  Level Washington Center
11:53AM 39.0253 -77.0558 227° Southwest 446 513 38,000  Level Washington Center
11:54AM 38.9325 -77.1581 221° Southwest 446 513 38,000  Level Washington Center
11:55AM 38.8392 -77.2600 220° Southwest 446 513 38,000  Level Washington Center
11:56AM 38.7439 -77.3644 221° Southwest 446 513 38,000  Level Washington Center
11:57AM 38.6592 -77.4581 221° Southwest 446 513 38,000  Level Washington Center
11:58AM 38.5617 -77.5644 220° Southwest 451 519 38,000  Level Washington Center
11:59AM 38.4681 -77.6681 221° Southwest 456 525 38,000  Level Washington Center
12:00PM 38.3725 -77.7714 220° Southwest 462 532 38,000  Level Washington Center
12:01PM 38.2744 -77.8769 220° Southwest 462 532 38,000  Level Washington Center
12:02PM 38.1808 -77.9797 221° Southwest 462 532 38,000  Level Washington Center
12:03PM 38.0828 -78.0847 220° Southwest 462 532 38,000  Level Washington Center
12:04PM 37.9847 -78.1842 219° Southwest 462 532 38,000  Level Washington Center
12:05PM 37.8867 -78.2781 217° Southwest 457 526 38,000  Level Washington Center
12:06PM 37.7844 -78.3744 217° Southwest 457 526 38,000  Level Washington Center
12:07PM 37.6861 -78.4706 218° Southwest 457 526 38,000  Level Washington Center
12:08PM 37.5731 -78.5736 216° Southwest 462 532 38,000  Level Washington Center
12:09PM 37.4706 -78.6692 217° Southwest 467 537 38,000  Level Washington Center
12:10PM 37.3681 -78.7642 216° Southwest 467 537 38,000  Level Washington Center
12:11PM 37.2675 -78.8567 216° Southwest 467 537 38,000  Level Washington Center
12:12PM 37.1753 -78.9439 217° Southwest 467 537 38,000  Level Washington Center
12:13PM 37.0747 -79.0358 216° Southwest 467 537 38,000  Level Washington Center
12:14PM 36.9717 -79.1328 217° Southwest 467 537 38,000  Level Washington Center
12:15PM 36.8731 -79.2242 217° Southwest 467 537 38,000  Level Washington Center
12:16PM 36.7722 -79.3156 216° Southwest 462 532 38,000  Level Washington Center
12:17PM 36.6625 -79.4164 216° Southwest 462 532 38,000  Level Washington Center
12:18PM 36.5636 -79.5072 216° Southwest 455 524 38,000  Level Washington Center
12:19PM 36.4092 -79.6456 216° Southwest 455 524 38,000  Level Atlanta Center
12:20PM 36.3083 -79.7386 217° Southwest 460 529 38,000  Level Atlanta Center
12:21PM 36.2092 -79.8289 216° Southwest 460 529 38,000  Level Atlanta Center
12:22PM 36.1081 -79.9189 216° Southwest 460 529 38,000  Level Atlanta Center
12:23PM 35.9875 -79.9994 208° Southwest 460 529 38,000  Level Atlanta Center
12:24PM 35.8728 -80.0617 204° Southwest 450 518 38,000  Level Atlanta Center
12:25PM 35.7581 -80.1208 203° Southwest 450 518 38,000  Level Atlanta Center
12:26PM 35.6408 -80.1803 202° Southwest 455 524 38,000  Level Atlanta Center
12:27PM 35.5239 -80.2367 201° Southwest 455 524 38,000  Level Atlanta Center
12:28PM 35.4067 -80.2981 203° Southwest 455 524 38,000  Level Atlanta Center
12:29PM 35.2894 -80.3544 201° Southwest 449 517 38,000  Level Atlanta Center
12:30PM 35.1725 -80.4156 203° Southwest 449 517 38,000  Level Atlanta Center
12:32PM 34.9781 -80.5111 202° Southwest 438 504 38,000  Level Jacksonville Center
12:33PM 34.8497 -80.5753 202° Southwest 450 518 38,000  Level Jacksonville Center
12:34PM 34.7506 -80.6261 203° Southwest 445 512 38,000  Level Jacksonville Center
12:35PM 34.6328 -80.6822 201° Southwest 445 512 38,000  Level Jacksonville Center
12:36PM 34.4961 -80.7461 201° Southwest 474 545 38,000  Level Jacksonville Center
12:37PM 34.3783 -80.8119 205° Southwest 466 536 38,000  Level Jacksonville Center
12:38PM 34.2747 -80.8572 200° South 467 537 38,000  Level Jacksonville Center
12:39PM 34.1631 -80.9125 202° Southwest 451 519 38,000  Level Jacksonville Center
12:40PM 34.0428 -80.9678 201° Southwest 451 519 38,000  Level Jacksonville Center
12:41PM 33.9247 -81.0256 202° Southwest 456 525 38,000  Level Jacksonville Center
12:42PM 33.7942 -81.0833 200° South 456 525 38,000  Level Jacksonville Center
12:43PM 33.6906 -81.1403 205° Southwest 456 525 38,000  Level Jacksonville Center
12:44PM 33.5706 -81.2025 203° Southwest 456 525 38,000  Level Jacksonville Center
12:45PM 33.4522 -81.2594 202° Southwest 456 525 38,000  Level Jacksonville Center
12:46PM 33.3342 -81.3164 202° Southwest 456 525 38,000  Level Jacksonville Center
12:47PM 33.2281 -81.3628 200° South 456 525 38,000  Level Jacksonville Center
12:48PM 33.0975 -81.4322 204° Southwest 456 525 38,000  Level Jacksonville Center
12:49PM 32.9792 -81.4911 203° Southwest 456 525 38,000  Level Jacksonville Center
12:50PM 32.8608 -81.5472 202° Southwest 456 525 38,000  Level Jacksonville Center
12:51PM 32.7425 -81.6033 202° Southwest 461 531 38,000  Level Jacksonville Center
12:52PM 32.6242 -81.6642 203° Southwest 461 531 38,000  Level Jacksonville Center
12:53PM 32.4889 -81.7250 201° Southwest 467 537 38,000  Level Jacksonville Center
12:54PM 32.3789 -81.7783 202° Southwest 472 543 38,000  Level Jacksonville Center
12:55PM 32.2456 -81.8389 201° Southwest 477 549 38,000  Level Jacksonville Center
12:56PM 32.1250 -81.8992 203° Southwest 468 539 38,000  Level Jacksonville Center
12:57PM 32.0003 -81.9567 201° Southwest 478 550 38,000  Level Jacksonville Center
12:58PM 31.8817 -82.0069 200° South 467 537 38,000  Level Jacksonville Center
12:59PM 31.7711 -82.0494 198° South 462 532 38,000  Level Jacksonville Center
01:00PM 31.6381 -82.1044 199° South 462 532 38,000  Level Jacksonville Center
01:01PM 31.5361 -82.1614 205° Southwest 457 526 38,000  Level Jacksonville Center
01:02PM 31.4236 -82.2353 209° Southwest 457 526 38,000  Level Jacksonville Center
01:03PM 31.3092 -82.3042 207° Southwest 467 537 38,000  Level Jacksonville Center
01:04PM 31.1947 -82.3778 209° Southwest 467 537 38,000  Level Jacksonville Center
01:05PM 31.0694 -82.4122 193° South 455 524 38,000  Level Jacksonville Center
01:06PM 30.9464 -82.4444 193° South 460 529 38,000  Level Jacksonville Center
01:07PM 30.8211 -82.4814 194° South 460 529 38,000  Level Jacksonville Center
01:08PM 30.7003 -82.5375 202° Southwest 460 529 38,000  Level Jacksonville Center
01:09PM 30.5836 -82.5933 202° Southwest 460 529 38,000  Level Jacksonville Center
01:10PM 30.4522 -82.6419 198° South 460 529 38,000  Level Jacksonville Center
01:11PM 30.3269 -82.6350 177° South 454 522 38,000  Level Jacksonville Center
01:12PM 30.2139 -82.6114 170° South 444 511 38,000  Level Jacksonville Center
01:13PM 30.0803 -82.5733 166° South 444 511 38,000 -1,260 Level Jacksonville Center
01:14PM 29.9633 -82.5378 165° South 449 517 35,500 -2,760 Descending Jacksonville Center
01:15PM 29.8422 -82.5022 166° South 449 517 32,500 -3,120 Descending Jacksonville Center
01:16PM 29.7167 -82.4717 168° South 449 517 29,400 -2,820 Descending Jacksonville Center
01:17PM 29.5933 -82.4389 167° South 449 517 27,000 -1,200 Descending Jacksonville Center
01:18PM 29.4828 -82.4106 167° South 449 517 27,000 -780 Level Jacksonville Center
01:19PM 29.3553 -82.3756 167° South 460 529 25,500 -1,020 Descending Jacksonville Center
01:20PM 29.2342 -82.3453 168° South 460 529 25,000 -900 Descending Jacksonville Center
01:21PM 29.1128 -82.3125 167° South 450 518 23,800 -1,140 Descending Jacksonville Center
01:22PM 28.9978 -82.2825 167° South 445 512 22,800 -2,100 Descending Jacksonville Center
01:23PM 28.8872 -82.2522 167° South 431 496 19,600 -3,000 Descending Jacksonville Center
01:26PM 28.6000 -82.1833 168° South 367 422 12,100 -2,100 Descending Tampa TRACON
01:27PM 28.5000 -82.1667 172° South 349 402 12,000 -60 Descending Tampa TRACON
01:28PM 28.4000 -82.1667 180° South 361 415 12,000  Level Tampa TRACON
01:29PM 28.3000 -82.1500 172° South 366 421 12,000  Level Tampa TRACON
01:30PM 28.2000 -82.1333 172° South 358 412 12,000  Level Tampa TRACON
01:31PM 28.1167 -82.1333 180° South 353 406 12,000  Level Tampa TRACON
01:32PM 28.0167 -82.1833 204° Southwest 351 404 12,000 -240 Level Tampa TRACON
01:33PM 27.9333 -82.2333 208° Southwest 343 395 11,500 -780 Descending Tampa TRACON
01:34PM 27.8500 -82.2833 208° Southwest 337 388 10,600 -840 Descending Tampa TRACON
01:35PM 27.7667 -82.3500 215° Southwest 365 420 10,000 -300 Descending Tampa TRACON
01:36PM 27.7000 -82.4000 214° Southwest 328 377 10,000 -840 Level Tampa TRACON
01:37PM 27.6333 -82.4667 222° Southwest 293 337 8,400 -1,740 Descending Tampa TRACON
01:38PM 27.5667 -82.5167 214° Southwest 278 320 6,600 -1,800 Descending Tampa TRACON
01:39PM 27.5167 -82.5667 222° Southwest 230 265 4,800 -1,800 Descending Tampa TRACON
01:40PM 27.4833 -82.6167 233° Southwest 208 239 3,000 -1,680 Descending Tampa TRACON
01:41PM 27.4333 -82.6000 164° South 125 144 1,500 -1,320 Descending Tampa TRACON
01:42PM 27.4167 -82.5833 138° Southeast 131 151 500 -1,140 Descending Tampa TRACON
01:44PM 27.3954 -82.5544 180° South  Level Estimated
01:51PM 27.3954 -82.5544 180° South  Level Estimated